createdAt,value
2022-09-10T00:00:54.310Z,63.99
2022-09-10T00:03:22.168Z,64.12
2022-09-10T00:05:50.474Z,64.54
2022-09-10T00:08:19.828Z,64.31
2022-09-10T00:10:49.633Z,64.22
2022-09-10T00:13:21.787Z,64.42
2022-09-10T00:15:52.110Z,64.56
2022-09-10T00:18:22.089Z,64.86
2022-09-10T00:20:52.232Z,64.88
2022-09-10T00:23:23.473Z,64.57
2022-09-10T00:25:52.129Z,64.67
2022-09-10T00:28:22.594Z,65.39
2022-09-10T00:30:52.199Z,65.26
2022-09-10T00:33:21.225Z,65.33
2022-09-10T00:35:49.471Z,65.44
2022-09-10T00:38:18.269Z,65.58
2022-09-10T00:40:47.027Z,65.94
2022-09-10T00:43:17.637Z,66.05
2022-09-10T00:45:51.416Z,65.84
2022-09-10T00:48:23.248Z,65.87
2022-09-10T00:50:51.853Z,65.81
2022-09-10T00:53:23.317Z,65.71
2022-09-10T00:55:55.654Z,65.71
2022-09-10T00:58:25.736Z,65.62
2022-09-10T01:01:00.748Z,65.42
2022-09-10T01:03:30.079Z,65.33
2022-09-10T01:05:58.594Z,65.08
2022-09-10T01:08:27.366Z,64.93
2022-09-10T01:11:08.664Z,63.73
2022-09-10T01:13:49.662Z,63.97
2022-09-10T01:16:27.532Z,64.04
2022-09-10T01:19:05.608Z,63.66
2022-09-10T01:21:38.185Z,63.61
2022-09-10T01:24:24.161Z,62.62
2022-09-10T01:27:32.020Z,61.58
2022-09-10T01:30:07.156Z,60.39
2022-09-10T01:32:44.861Z,59.33
2022-09-10T01:35:17.896Z,59.23
2022-09-10T01:37:50.185Z,59.64
2022-09-10T01:40:19.966Z,59.99
2022-09-10T01:42:49.890Z,60.01
2022-09-10T01:45:19.219Z,60.02
2022-09-10T01:48:22.252Z,60.04
2022-09-10T01:51:04.398Z,59.95
2022-09-10T01:53:52.611Z,60.12
2022-09-10T01:56:35.577Z,60.11
2022-09-10T01:59:14.384Z,60.15
2022-09-10T02:01:51.444Z,60.10
2022-09-10T02:04:22.178Z,60.23
2022-09-10T02:06:52.603Z,60.22
2022-09-10T02:09:20.975Z,60.41
2022-09-10T02:11:51.504Z,60.50
2022-09-10T02:14:38.554Z,60.78
2022-09-10T02:17:37.438Z,60.54
2022-09-10T02:20:08.297Z,60.62
2022-09-10T02:22:37.109Z,60.75
2022-09-10T02:25:06.002Z,60.98
2022-09-10T02:27:33.923Z,60.97
2022-09-10T02:30:01.862Z,61.20
2022-09-10T02:32:31.191Z,61.16
2022-09-10T02:35:00.483Z,60.86
2022-09-10T02:37:30.189Z,60.68
2022-09-10T02:39:58.065Z,60.65
2022-09-10T02:42:26.309Z,60.27
2022-09-10T02:44:54.253Z,60.32
2022-09-10T02:47:22.071Z,60.06
2022-09-10T02:49:49.953Z,60.07
2022-09-10T02:52:19.180Z,59.88
2022-09-10T02:54:47.013Z,59.78
2022-09-10T02:57:14.789Z,59.86
2022-09-10T02:59:43.840Z,59.86
2022-09-10T03:02:12.533Z,60.91
2022-09-10T03:04:40.742Z,61.82
2022-09-10T03:07:08.845Z,61.81
2022-09-10T03:09:41.101Z,62.47
2022-09-10T03:12:09.014Z,62.19
2022-09-10T03:14:37.287Z,62.00
2022-09-10T03:17:06.120Z,61.82
2022-09-10T03:19:33.959Z,61.56
2022-09-10T03:22:01.737Z,61.06
2022-09-10T03:24:33.664Z,60.80
2022-09-10T03:27:02.879Z,60.95
2022-09-10T03:29:30.918Z,60.69
2022-09-10T03:32:01.155Z,60.79
2022-09-10T03:34:29.173Z,60.71
2022-09-10T03:36:57.047Z,61.14
2022-09-10T03:39:24.952Z,60.90
2022-09-10T03:41:53.293Z,60.86
2022-09-10T03:44:22.424Z,60.97
2022-09-10T03:46:52.001Z,61.08
2022-09-10T03:49:19.943Z,61.16
2022-09-10T03:51:48.718Z,61.55
2022-09-10T03:54:17.767Z,61.25
2022-09-10T03:56:45.657Z,61.35
2022-09-10T03:59:14.875Z,61.42
2022-09-10T04:01:44.334Z,61.10
2022-09-10T04:04:12.698Z,61.62
2022-09-10T04:06:40.521Z,61.65
2022-09-10T04:09:08.367Z,61.96
2022-09-10T04:11:36.238Z,61.84
2022-09-10T04:14:04.563Z,61.86
2022-09-10T04:16:32.614Z,61.54
2022-09-10T04:19:02.295Z,61.93
2022-09-10T04:21:31.506Z,61.76
2022-09-10T04:24:00.734Z,61.93
2022-09-10T04:26:28.802Z,61.97
2022-09-10T04:28:56.728Z,62.22
2022-09-10T04:31:24.714Z,62.67
2022-09-10T04:33:56.313Z,63.12
2022-09-10T04:36:28.573Z,63.32
2022-09-10T04:38:58.177Z,63.48
2022-09-10T04:41:26.024Z,63.54
2022-09-10T04:43:55.211Z,63.78
2022-09-10T04:46:24.645Z,63.78
2022-09-10T04:48:54.744Z,63.53
2022-09-10T04:51:25.036Z,63.71
2022-09-10T04:53:56.122Z,63.62
2022-09-10T04:56:28.681Z,63.47
2022-09-10T04:58:56.872Z,63.22
2022-09-10T05:01:24.858Z,62.75
2022-09-10T05:03:54.509Z,62.53
2022-09-10T05:06:23.289Z,62.34
2022-09-10T05:08:51.680Z,61.97
2022-09-10T05:11:21.733Z,62.01
2022-09-10T05:13:49.652Z,62.51
2022-09-10T05:16:22.001Z,62.33
2022-09-10T05:18:49.876Z,62.21
2022-09-10T05:21:18.900Z,62.00
2022-09-10T05:23:47.332Z,61.07
2022-09-10T05:26:15.477Z,61.46
2022-09-10T05:28:44.871Z,61.35
2022-09-10T05:31:17.327Z,61.45
2022-09-10T05:33:46.352Z,61.31
2022-09-10T05:36:15.006Z,61.15
2022-09-10T05:38:45.533Z,60.67
2022-09-10T05:41:13.763Z,60.35
2022-09-10T05:43:47.670Z,60.29
2022-09-10T05:46:15.927Z,60.26
2022-09-10T05:48:47.180Z,60.13
2022-09-10T05:51:15.344Z,59.67
2022-09-10T05:53:44.829Z,59.24
2022-09-10T05:56:12.831Z,58.83
2022-09-10T05:58:44.991Z,58.29
2022-09-10T06:01:16.279Z,58.30
2022-09-10T06:03:45.246Z,57.42
2022-09-10T06:06:13.375Z,57.27
2022-09-10T06:08:52.074Z,57.35
2022-09-10T06:11:28.033Z,57.52
2022-09-10T06:13:59.473Z,57.73
2022-09-10T06:16:28.985Z,57.96
2022-09-10T06:18:59.630Z,57.75
2022-09-10T06:21:29.306Z,58.00
2022-09-10T06:23:58.728Z,58.21
2022-09-10T06:26:30.243Z,58.45
2022-09-10T06:29:01.875Z,58.40
2022-09-10T06:31:31.829Z,58.65
2022-09-10T06:34:01.365Z,58.30
2022-09-10T06:36:31.341Z,58.49
2022-09-10T06:39:02.010Z,58.50
2022-09-10T06:41:31.701Z,58.93
2022-09-10T06:44:05.273Z,58.81
2022-09-10T06:47:17.897Z,58.44
2022-09-10T06:49:29.598Z,58.19
2022-09-10T06:51:58.005Z,58.33
2022-09-10T06:54:27.023Z,58.47
2022-09-10T06:56:58.765Z,58.61
2022-09-10T06:59:26.976Z,58.32
2022-09-10T07:01:56.547Z,57.98
2022-09-10T07:04:24.404Z,58.33
2022-09-10T07:06:52.648Z,58.02
2022-09-10T07:09:21.053Z,57.52
2022-09-10T07:12:04.843Z,56.94
2022-09-10T07:14:36.200Z,56.20
2022-09-10T07:17:09.046Z,55.48
2022-09-10T07:19:38.438Z,55.23
2022-09-10T07:22:13.513Z,52.66
2022-09-10T07:24:41.772Z,52.59
2022-09-10T07:27:11.987Z,52.33
2022-09-10T07:29:42.850Z,51.96
2022-09-10T07:32:21.406Z,52.56
2022-09-10T07:34:57.747Z,52.83
2022-09-10T07:37:30.129Z,51.35
2022-09-10T07:39:58.080Z,51.40
2022-09-10T07:42:27.173Z,50.81
2022-09-10T07:44:55.055Z,51.34
2022-09-10T07:47:25.318Z,51.48
2022-09-10T07:49:53.539Z,50.93
2022-09-10T07:52:21.652Z,50.12
2022-09-10T07:54:52.511Z,49.25
2022-09-10T07:57:22.688Z,48.55
2022-09-10T07:59:50.531Z,48.87
2022-09-10T08:02:21.959Z,48.60
2022-09-10T08:04:57.451Z,48.04
2022-09-10T08:07:25.378Z,48.36
2022-09-10T08:09:53.587Z,49.54
2022-09-10T08:12:22.045Z,50.19
2022-09-10T08:14:50.771Z,50.68
2022-09-10T08:17:19.203Z,50.78
2022-09-10T08:19:47.614Z,51.17
2022-09-10T08:22:18.147Z,51.48
2022-09-10T08:24:55.641Z,51.50
2022-09-10T08:27:26.513Z,53.52
2022-09-10T08:29:57.586Z,54.33
2022-09-10T08:32:25.486Z,54.74
2022-09-10T08:34:54.308Z,55.18
2022-09-10T08:37:23.717Z,55.27
2022-09-10T08:39:51.619Z,55.61
2022-09-10T08:42:26.529Z,55.21
2022-09-10T08:44:59.813Z,55.13
2022-09-10T08:47:35.132Z,54.71
2022-09-10T08:50:13.816Z,54.29
2022-09-10T08:52:50.009Z,54.00
2022-09-10T08:55:28.215Z,53.77
2022-09-10T08:57:59.307Z,53.79
2022-09-10T09:00:29.704Z,53.46
2022-09-10T09:03:03.152Z,53.42
2022-09-10T09:05:44.672Z,53.33
2022-09-10T09:08:17.029Z,53.29
2022-09-10T09:10:49.676Z,53.14
2022-09-10T09:13:40.827Z,52.43
2022-09-10T09:16:21.638Z,50.45
2022-09-10T09:19:03.329Z,49.72
2022-09-10T09:21:42.958Z,49.52
2022-09-10T09:24:23.376Z,49.11
2022-09-10T09:27:03.161Z,49.30
2022-09-10T09:29:35.613Z,50.36
2022-09-10T09:32:06.899Z,51.09
2022-09-10T09:34:39.733Z,51.83
2022-09-10T09:37:16.820Z,51.87
2022-09-10T09:39:54.404Z,52.52
2022-09-10T09:42:30.242Z,52.74
2022-09-10T09:45:04.126Z,52.75
2022-09-10T09:47:32.130Z,51.81
2022-09-10T09:50:00.308Z,51.56
2022-09-10T09:52:31.816Z,51.67
2022-09-10T09:55:15.404Z,51.52
2022-09-10T09:57:43.924Z,51.47
2022-09-10T10:00:36.250Z,50.90
2022-09-10T10:03:13.920Z,50.81
2022-09-10T10:05:42.403Z,50.35
2022-09-10T10:08:30.824Z,50.51
2022-09-10T10:11:00.231Z,50.67
2022-09-10T10:13:38.264Z,50.83
2022-09-10T10:16:17.395Z,50.31
2022-09-10T10:18:46.159Z,49.59
2022-09-10T10:21:17.044Z,49.02
2022-09-10T10:23:45.573Z,48.61
2022-09-10T10:26:30.332Z,48.49
2022-09-10T10:29:01.688Z,48.36
2022-09-10T10:31:41.755Z,48.33
2022-09-10T10:34:37.305Z,48.61
2022-09-10T10:37:10.495Z,48.43
2022-09-10T10:40:01.005Z,48.14
2022-09-10T10:42:36.382Z,48.08
2022-09-10T10:45:18.437Z,48.34
2022-09-10T10:48:04.305Z,48.60
2022-09-10T10:50:40.156Z,48.49
2022-09-10T10:53:36.030Z,48.40
2022-09-10T10:56:09.929Z,48.27
2022-09-10T10:58:53.943Z,48.33
2022-09-10T11:01:24.327Z,48.09
2022-09-10T11:04:00.917Z,48.22
2022-09-10T11:06:36.144Z,48.47
2022-09-10T11:09:09.097Z,49.02
2022-09-10T11:11:47.102Z,49.60
2022-09-10T11:14:23.986Z,49.14
2022-09-10T11:16:58.879Z,49.05
2022-09-10T11:19:35.725Z,49.26
2022-09-10T11:22:11.609Z,49.39
2022-09-10T11:24:44.615Z,48.12
2022-09-10T11:27:17.295Z,47.93
2022-09-10T11:29:54.451Z,47.19
2022-09-10T11:32:30.499Z,46.39
2022-09-10T11:35:07.119Z,46.82
2022-09-10T11:38:01.155Z,47.08
2022-09-10T11:40:35.594Z,47.62
2022-09-10T11:43:11.083Z,47.18
2022-09-10T11:45:48.710Z,47.53
2022-09-10T11:48:22.743Z,47.71
2022-09-10T11:50:56.031Z,47.61
2022-09-10T11:53:26.036Z,46.54
2022-09-10T11:56:23.815Z,46.79
2022-09-10T11:59:04.793Z,46.10
2022-09-10T12:01:51.951Z,45.18
2022-09-10T12:04:47.524Z,45.32
2022-09-10T12:07:27.038Z,45.08
2022-09-10T12:10:12.279Z,45.24
2022-09-10T12:12:44.229Z,45.86
2022-09-10T12:15:19.705Z,45.30
2022-09-10T12:17:52.565Z,45.46
2022-09-10T12:20:27.953Z,45.39
2022-09-10T12:22:57.351Z,45.26
2022-09-10T12:25:34.282Z,45.40
2022-09-10T12:28:07.633Z,45.47
2022-09-10T12:31:02.744Z,45.64
2022-09-10T12:34:00.511Z,45.47
2022-09-10T12:37:17.087Z,44.54
2022-09-10T12:39:46.750Z,45.45
2022-09-10T12:42:28.022Z,45.38
2022-09-10T12:44:56.210Z,45.66
2022-09-10T12:47:44.902Z,45.41
2022-09-10T12:50:30.563Z,45.08
2022-09-10T12:53:37.407Z,45.04
2022-09-10T12:56:44.700Z,45.29
2022-09-10T12:59:41.597Z,45.15
2022-09-10T13:02:40.336Z,44.31
2022-09-10T13:05:24.308Z,44.23
2022-09-10T13:08:00.251Z,44.39
2022-09-10T13:10:29.889Z,44.43
2022-09-10T13:13:03.226Z,44.30
2022-09-10T13:15:35.507Z,44.10
2022-09-10T13:18:29.968Z,43.39
2022-09-10T13:20:59.129Z,43.00
2022-09-10T13:23:48.642Z,42.81
2022-09-10T13:26:49.512Z,43.60
2022-09-10T13:29:38.126Z,43.08
2022-09-10T13:32:12.365Z,43.50
2022-09-10T13:35:12.195Z,43.54
2022-09-10T13:37:54.709Z,42.31
2022-09-10T13:40:40.850Z,41.76
2022-09-10T13:43:38.762Z,41.19
2022-09-10T13:46:14.767Z,40.22
2022-09-10T13:48:47.371Z,40.08
2022-09-10T13:51:25.104Z,40.42
2022-09-10T13:53:54.048Z,41.07
2022-09-10T13:56:24.782Z,41.88
2022-09-10T13:58:55.288Z,41.80
2022-09-10T14:01:53.054Z,42.68
2022-09-10T14:04:27.205Z,43.04
2022-09-10T14:07:00.300Z,42.92
2022-09-10T14:09:28.443Z,42.16
2022-09-10T14:11:59.703Z,42.03
2022-09-10T14:14:30.849Z,41.95
2022-09-10T14:17:06.644Z,42.09
2022-09-10T14:19:42.476Z,42.83
2022-09-10T14:22:17.149Z,43.65
2022-09-10T14:24:51.585Z,44.31
2022-09-10T14:27:23.833Z,44.51
2022-09-10T14:29:52.518Z,44.93
2022-09-10T14:32:33.013Z,45.51
2022-09-10T14:35:22.895Z,45.02
2022-09-10T14:37:51.655Z,44.33
2022-09-10T14:40:21.298Z,44.54
2022-09-10T14:42:50.476Z,43.57
2022-09-10T14:45:44.209Z,43.58
2022-09-10T14:49:02.306Z,44.33
2022-09-10T14:51:30.642Z,44.92
2022-09-10T14:53:59.741Z,45.24
2022-09-10T14:56:32.731Z,45.96
2022-09-10T14:59:02.600Z,45.39
2022-09-10T15:01:31.397Z,45.86
2022-09-10T15:04:00.736Z,47.06
2022-09-10T15:06:28.528Z,48.16
2022-09-10T15:08:57.028Z,49.09
2022-09-10T15:11:27.256Z,49.43
2022-09-10T15:13:56.732Z,49.32
2022-09-10T15:16:24.497Z,49.53
2022-09-10T15:18:52.330Z,49.89
2022-09-10T15:21:22.263Z,49.97
2022-09-10T15:23:50.086Z,49.52
2022-09-10T15:26:18.027Z,49.45
2022-09-10T15:28:45.815Z,49.08
2022-09-10T15:31:13.679Z,48.88
2022-09-10T15:33:42.034Z,49.38
2022-09-10T15:36:10.738Z,49.79
2022-09-10T15:38:39.912Z,49.86
2022-09-10T15:41:12.640Z,50.44
2022-09-10T15:43:43.648Z,50.86
2022-09-10T15:46:13.224Z,51.13
2022-09-10T15:48:41.209Z,51.92
2022-09-10T15:51:13.730Z,52.09
2022-09-10T15:53:43.856Z,52.92
2022-09-10T15:56:12.862Z,52.84
2022-09-10T15:58:40.809Z,53.43
2022-09-10T16:01:12.292Z,53.57
2022-09-10T16:03:46.396Z,53.94
2022-09-10T16:06:15.516Z,54.24
2022-09-10T16:08:49.459Z,54.10
2022-09-10T16:11:18.080Z,54.17
2022-09-10T16:13:46.747Z,54.26
2022-09-10T16:16:18.933Z,54.69
2022-09-10T16:18:48.099Z,54.52
2022-09-10T16:21:18.492Z,54.34
2022-09-10T16:23:48.302Z,54.50
2022-09-10T16:26:18.143Z,54.76
2022-09-10T16:28:50.001Z,55.02
2022-09-10T16:31:19.853Z,55.27
2022-09-10T16:33:52.770Z,55.37
2022-09-10T16:36:23.495Z,55.10
2022-09-10T16:38:55.356Z,55.44
2022-09-10T16:41:25.087Z,55.53
2022-09-10T16:43:53.849Z,55.87
2022-09-10T16:46:21.920Z,56.00
2022-09-10T16:48:53.522Z,56.06
2022-09-10T16:51:24.342Z,55.84
2022-09-10T16:53:57.796Z,55.72
2022-09-10T16:56:26.810Z,55.69
2022-09-10T16:58:54.944Z,55.62
2022-09-10T17:01:23.112Z,55.57
2022-09-10T17:03:53.800Z,55.61
2022-09-10T17:06:24.219Z,55.73
2022-09-10T17:08:52.864Z,55.47
2022-09-10T17:11:22.741Z,55.93
2022-09-10T17:13:51.326Z,55.94
2022-09-10T17:16:25.484Z,56.32
2022-09-10T17:18:58.868Z,56.15
2022-09-10T17:21:27.107Z,56.05
2022-09-10T17:23:55.249Z,56.02
2022-09-10T17:26:26.926Z,56.40
2022-09-10T17:28:55.997Z,56.74
2022-09-10T17:31:24.997Z,56.39
2022-09-10T17:33:53.341Z,56.34
2022-09-10T17:36:21.764Z,56.60
2022-09-10T17:38:49.905Z,56.89
2022-09-10T17:41:19.086Z,56.69
2022-09-10T17:43:48.460Z,56.79
2022-09-10T17:46:19.280Z,56.95
2022-09-10T17:48:48.205Z,57.02
2022-09-10T17:51:18.613Z,56.97
2022-09-10T17:53:46.958Z,57.25
2022-09-10T17:56:16.850Z,57.46
2022-09-10T17:58:44.922Z,57.43
2022-09-10T18:01:23.072Z,57.65
2022-09-10T18:03:51.934Z,58.21
2022-09-10T18:06:21.396Z,58.23
2022-09-10T18:08:50.930Z,58.35
2022-09-10T18:11:21.411Z,58.23
2022-09-10T18:13:52.321Z,58.35
2022-09-10T18:16:23.825Z,58.37
2022-09-10T18:18:55.422Z,58.52
2022-09-10T18:21:25.313Z,58.63
2022-09-10T18:23:54.555Z,58.73
2022-09-10T18:26:24.951Z,58.84
2022-09-10T18:28:55.779Z,59.04
2022-09-10T18:31:27.667Z,59.27
2022-09-10T18:33:56.047Z,59.35
2022-09-10T18:36:25.725Z,59.47
2022-09-10T18:38:53.802Z,59.59
2022-09-10T18:41:24.673Z,59.78
2022-09-10T18:43:54.198Z,59.93
2022-09-10T18:46:23.569Z,60.03
2022-09-10T18:48:53.903Z,60.03
2022-09-10T18:51:24.730Z,60.04
2022-09-10T18:53:53.968Z,60.22
2022-09-10T18:56:24.178Z,60.30
2022-09-10T18:58:54.389Z,60.33
2022-09-10T19:01:23.366Z,60.42
2022-09-10T19:03:52.986Z,60.34
2022-09-10T19:06:23.960Z,60.37
2022-09-10T19:08:54.226Z,60.27
2022-09-10T19:11:24.355Z,59.86
2022-09-10T19:13:54.384Z,59.72
2022-09-10T19:16:24.916Z,59.00
2022-09-10T19:18:56.073Z,58.87
2022-09-10T19:21:26.169Z,58.62
2022-09-10T19:23:59.333Z,58.73
2022-09-10T19:26:29.430Z,58.96
2022-09-10T19:28:58.272Z,58.85
2022-09-10T19:31:27.606Z,58.29
2022-09-10T19:33:58.617Z,58.59
2022-09-10T19:36:28.322Z,58.97
2022-09-10T19:38:56.256Z,58.53
2022-09-10T19:41:25.430Z,59.43
2022-09-10T19:43:54.992Z,59.60
2022-09-10T19:46:28.174Z,59.80
2022-09-10T19:48:59.621Z,59.93
2022-09-10T19:51:29.565Z,60.30
2022-09-10T19:53:57.959Z,60.68
2022-09-10T19:56:27.959Z,61.09
2022-09-10T19:58:57.812Z,61.22
2022-09-10T20:01:27.335Z,61.41
2022-09-10T20:03:57.058Z,61.74
2022-09-10T20:06:25.555Z,62.09
2022-09-10T20:08:53.851Z,62.16
2022-09-10T20:11:26.659Z,62.17
2022-09-10T20:13:56.230Z,62.15
2022-09-10T20:16:26.007Z,61.97
2022-09-10T20:18:54.283Z,61.75
2022-09-10T20:21:25.339Z,62.04
2022-09-10T20:23:55.607Z,62.29
2022-09-10T20:26:25.496Z,62.62
2022-09-10T20:28:55.629Z,62.60
2022-09-10T20:31:24.725Z,62.75
2022-09-10T20:33:56.296Z,62.99
2022-09-10T20:36:26.497Z,62.97
2022-09-10T20:38:55.617Z,63.21
2022-09-10T20:41:24.058Z,63.49
2022-09-10T20:43:53.111Z,63.51
2022-09-10T20:46:23.109Z,63.73
2022-09-10T20:48:52.325Z,63.79
2022-09-10T20:51:21.109Z,63.95
2022-09-10T20:53:50.329Z,63.81
2022-09-10T20:56:19.670Z,64.04
2022-09-10T20:58:48.492Z,64.06
2022-09-10T21:01:18.879Z,63.81
2022-09-10T21:03:48.376Z,63.75
2022-09-10T21:06:18.335Z,64.06
2022-09-10T21:08:47.530Z,63.86
2022-09-10T21:11:18.509Z,63.81
2022-09-10T21:13:48.064Z,63.73
2022-09-10T21:16:17.820Z,63.71
2022-09-10T21:18:52.223Z,63.68
2022-09-10T21:21:25.318Z,63.61
2022-09-10T21:23:55.511Z,63.89
2022-09-10T21:26:27.734Z,63.80
2022-09-10T21:28:57.160Z,63.90
2022-09-10T21:31:25.749Z,64.00
2022-09-10T21:33:54.354Z,63.93
2022-09-10T21:36:22.258Z,64.20
2022-09-10T21:38:50.914Z,64.15
2022-09-10T21:41:21.356Z,64.00
2022-09-10T21:43:50.575Z,64.05
2022-09-10T21:46:19.450Z,64.29
2022-09-10T21:48:47.299Z,64.34
2022-09-10T21:51:16.969Z,64.49
2022-09-10T21:53:45.914Z,64.41
2022-09-10T21:56:15.652Z,64.65
2022-09-10T21:58:44.987Z,64.88
2022-09-10T22:01:16.251Z,64.68
2022-09-10T22:03:44.387Z,64.85
2022-09-10T22:06:13.829Z,64.81
2022-09-10T22:08:44.100Z,64.90
2022-09-10T22:11:15.296Z,65.00
2022-09-10T22:13:43.837Z,64.98
2022-09-10T22:16:13.319Z,65.13
2022-09-10T22:18:44.437Z,64.99
2022-09-10T22:21:13.301Z,65.08
2022-09-10T22:23:41.640Z,65.17
2022-09-10T22:26:14.184Z,65.07
2022-09-10T22:28:42.962Z,65.26
2022-09-10T22:31:12.953Z,65.10
2022-09-10T22:33:43.746Z,65.31
2022-09-10T22:36:13.240Z,65.77
2022-09-10T22:38:41.648Z,65.45
2022-09-10T22:41:10.247Z,65.76
2022-09-10T22:43:38.992Z,65.85
2022-09-10T22:46:07.732Z,65.82
2022-09-10T22:48:37.585Z,65.55
2022-09-10T22:51:07.629Z,65.41
2022-09-10T22:53:36.275Z,65.57
2022-09-10T22:56:04.137Z,65.68
2022-09-10T22:58:32.947Z,65.41
2022-09-10T23:01:04.631Z,65.29
2022-09-10T23:03:32.499Z,64.98
2022-09-10T23:06:06.089Z,64.98
2022-09-10T23:08:36.670Z,64.97
2022-09-10T23:11:16.083Z,64.64
2022-09-10T23:13:45.468Z,64.67
2022-09-10T23:16:15.203Z,64.80
2022-09-10T23:18:44.087Z,64.98
2022-09-10T23:21:11.894Z,64.93
2022-09-10T23:23:47.399Z,65.04
2022-09-10T23:26:17.180Z,65.18
2022-09-10T23:28:45.564Z,65.00
2022-09-10T23:31:16.130Z,64.97
2022-09-10T23:33:46.618Z,65.01
2022-09-10T23:36:15.447Z,65.09
2022-09-10T23:38:44.776Z,65.06
2022-09-10T23:41:15.880Z,65.17
2022-09-10T23:43:44.296Z,65.25
2022-09-10T23:46:13.083Z,65.28
2022-09-10T23:48:42.531Z,65.28
2022-09-10T23:51:13.672Z,64.92
2022-09-10T23:53:42.650Z,65.28
2022-09-10T23:56:12.220Z,65.10
2022-09-10T23:58:40.364Z,65.15
